Ana Sayfa
METAR-TAF:

METAR-TAF

Havaalanları :

Ingalls Field

Hot Springs, Virginia, Amerika Birleşik Devletleri

Enlem: 37-57N, Boylam: 079-50W, yükseklik: 1156 m

Güncel hava durumu gözlemi

Rapor saat 15:35 UTC de 35 dakika önce yapıldı.
Rüzgar batıdan 3 kt
Sıcaklık 12°C
Nem 62%
Basınç 1022 hPa
Görüş mesafesi: 16.1 km
Açık gökyüzü

METAR: KHSP 241535Z AUTO 26003KT 10SM CLR 12/05 A3019 RMK AO2 T01200045

Saat: 12:10 (16:10 UTC)


TAF: eksik

4.000'den fazla havaalanı için hava durumu gözlemleri ve tahminleri (METAR ve TAF raporları).

Kullanılabilir istasyonlar harita üzerinde sarı ve kırmızı noktalarla gösterilir.

İstasyonun adını görmek için fareyi noktanın üzerinde gezdirin.

Sonrasında hava gözlem ve tahminlerini görmek için tıklayın.

Haritayı değiştirmek için: yaklaştırmak için siyah artı işaretli yeşil düğmeye ve uzaklaştırmak için de eksi işaretli düğmeye hızla tıklayın; bitişik haritalar için yeşil okları kullanın.


METAR-TAF: